createdAt,value
2018-12-25T00:03:26.060Z,1.00
2018-12-25T00:08:29.831Z,0.20
2018-12-25T00:13:33.789Z,1.00
2018-12-25T00:18:37.548Z,0.25
2018-12-25T00:23:41.320Z,0.00
2018-12-25T00:28:45.094Z,1.00
2018-12-25T00:33:48.873Z,0.25
2018-12-25T00:38:52.635Z,0.50
2018-12-25T00:43:56.412Z,1.00
2018-12-25T00:49:00.965Z,0.00
2018-12-25T00:54:04.728Z,0.75
2018-12-25T00:59:08.485Z,0.00
2018-12-25T01:04:12.254Z,0.00
2018-12-25T01:09:16.008Z,0.00
2018-12-25T01:14:19.779Z,0.50
2018-12-25T01:19:23.731Z,1.00
2018-12-25T01:24:27.526Z,1.00
2018-12-25T01:29:31.277Z,0.00
2018-12-25T01:34:35.048Z,0.80
2018-12-25T01:39:38.814Z,0.40
2018-12-25T01:44:42.575Z,0.00
2018-12-25T01:49:46.341Z,0.00
2018-12-25T01:54:50.198Z,0.00
2018-12-25T01:59:53.962Z,0.40
2018-12-25T02:04:57.717Z,0.00
2018-12-25T02:10:01.490Z,0.00
2018-12-25T02:15:06.233Z,0.80
2018-12-25T02:20:10.006Z,0.00
2018-12-25T02:25:13.769Z,0.00
2018-12-25T02:30:17.552Z,0.00
2018-12-25T02:35:21.314Z,0.00
2018-12-25T02:40:25.244Z,0.00
2018-12-25T02:45:29.030Z,0.00
2018-12-25T02:50:32.804Z,0.00
2018-12-25T02:55:36.714Z,0.00
2018-12-25T03:00:40.480Z,0.00
2018-12-25T03:05:44.243Z,0.00
2018-12-25T03:10:48.041Z,0.00
2018-12-25T03:15:51.806Z,0.00
2018-12-25T03:20:55.575Z,0.00
2018-12-25T03:25:59.334Z,0.00
2018-12-25T03:31:03.101Z,0.00
2018-12-25T03:36:06.882Z,0.00
2018-12-25T03:41:10.657Z,0.00
2018-12-25T03:46:14.416Z,0.00
2018-12-25T03:51:18.193Z,0.00
2018-12-25T03:56:22.003Z,1.00
2018-12-25T04:01:25.768Z,0.00
2018-12-25T04:06:29.527Z,0.00
2018-12-25T04:11:33.470Z,0.00
2018-12-25T04:16:37.233Z,0.00
2018-12-25T04:21:40.993Z,0.20
2018-12-25T04:26:44.767Z,0.20
2018-12-25T04:31:48.530Z,0.50
2018-12-25T04:36:52.292Z,0.25
2018-12-25T04:41:56.082Z,0.00
2018-12-25T04:46:59.846Z,0.00
2018-12-25T04:52:03.610Z,0.00
2018-12-25T04:57:07.374Z,0.00
2018-12-25T05:02:11.230Z,0.00
2018-12-25T05:07:14.987Z,0.00
2018-12-25T05:12:18.771Z,0.00
2018-12-25T05:17:22.536Z,0.75
2018-12-25T05:22:26.306Z,0.40
2018-12-25T05:27:30.071Z,0.00
2018-12-25T05:32:33.844Z,0.00
2018-12-25T05:37:37.611Z,0.00
2018-12-25T05:42:41.371Z,0.00
2018-12-25T05:47:45.141Z,0.00
2018-12-25T05:52:48.909Z,0.00
2018-12-25T05:57:52.749Z,0.00
2018-12-25T06:02:56.524Z,0.00
2018-12-25T06:08:00.286Z,0.00
2018-12-25T06:13:04.059Z,0.00
2018-12-25T06:18:07.818Z,0.00
2018-12-25T06:23:11.581Z,0.00
2018-12-25T06:28:15.342Z,0.00
2018-12-25T06:33:19.102Z,0.00
2018-12-25T06:38:22.885Z,0.00
2018-12-25T06:43:26.641Z,0.00
2018-12-25T06:48:30.406Z,0.00
2018-12-25T06:53:34.182Z,0.00
2018-12-25T06:58:37.958Z,0.00
2018-12-25T07:03:41.721Z,0.00
2018-12-25T07:08:45.493Z,0.00
2018-12-25T07:13:49.258Z,0.00
2018-12-25T07:18:53.035Z,0.00
2018-12-25T07:23:56.802Z,0.00
2018-12-25T07:29:00.593Z,0.00
2018-12-25T07:34:04.355Z,0.00
2018-12-25T07:39:08.139Z,0.00
2018-12-25T07:44:11.906Z,0.00
2018-12-25T07:49:15.669Z,0.00
2018-12-25T07:54:19.437Z,0.00
2018-12-25T07:59:23.215Z,0.00
2018-12-25T08:04:26.983Z,0.00
2018-12-25T08:09:30.760Z,6.00
2018-12-25T08:14:34.559Z,4.00
2018-12-25T08:19:38.371Z,1.75
2018-12-25T08:24:42.135Z,1.75
2018-12-25T08:29:45.947Z,1.40
2018-12-25T08:34:49.725Z,1.00
2018-12-25T08:39:53.534Z,0.40
2018-12-25T08:44:57.321Z,1.00
2018-12-25T08:50:01.105Z,0.20
2018-12-25T08:55:06.106Z,0.40
2018-12-25T09:00:12.201Z,1.00
2018-12-25T09:05:16.045Z,0.00
2018-12-25T09:10:19.821Z,0.00
2018-12-25T09:15:23.597Z,0.40
2018-12-25T09:20:27.404Z,0.25
2018-12-25T09:25:31.194Z,0.75
2018-12-25T09:30:34.978Z,0.00
2018-12-25T09:35:38.741Z,0.00
2018-12-25T09:40:42.571Z,0.25
2018-12-25T09:45:46.359Z,0.00
2018-12-25T09:50:50.138Z,0.00
2018-12-25T09:55:53.955Z,0.00
2018-12-25T10:00:57.737Z,0.00
2018-12-25T10:06:01.517Z,0.00
2018-12-25T10:11:05.292Z,0.00
2018-12-25T10:16:09.079Z,0.00
2018-12-25T10:21:12.861Z,0.00
2018-12-25T10:26:16.638Z,0.00
2018-12-25T10:31:20.414Z,0.00
2018-12-25T10:36:24.216Z,0.00
2018-12-25T10:41:28.015Z,0.00
2018-12-25T10:46:31.793Z,0.00
2018-12-25T10:51:35.566Z,0.00
2018-12-25T10:56:39.380Z,0.00
2018-12-25T11:01:43.168Z,0.00
2018-12-25T11:06:46.950Z,0.00
2018-12-25T11:11:50.721Z,0.00
2018-12-25T11:16:54.502Z,0.00
2018-12-25T11:21:58.298Z,0.00
2018-12-25T11:27:02.131Z,0.00
2018-12-25T11:32:05.881Z,1.00
2018-12-25T11:37:09.720Z,3.00
2018-12-25T11:42:13.498Z,13.25
2018-12-25T11:47:17.285Z,27.00
2018-12-25T11:52:28.225Z,31.00
2018-12-25T11:57:26.598Z,34.00
2018-12-25T12:02:30.414Z,35.00
2018-12-25T12:07:34.190Z,33.60
2018-12-25T12:12:37.972Z,33.00
2018-12-25T12:17:41.762Z,33.00
2018-12-25T12:22:45.536Z,32.00
2018-12-25T12:27:49.319Z,31.50
2018-12-25T12:32:53.090Z,31.00
2018-12-25T12:37:56.865Z,13.00
2018-12-25T12:43:00.644Z,7.75
2018-12-25T12:48:04.651Z,5.75
2018-12-25T12:53:08.419Z,6.00
2018-12-25T12:58:12.193Z,5.00
2018-12-25T13:03:15.949Z,2.50
2018-12-25T13:08:19.725Z,3.00
2018-12-25T13:13:23.497Z,2.00
2018-12-25T13:18:27.253Z,2.00
2018-12-25T13:23:31.021Z,2.00
2018-12-25T13:28:34.785Z,3.00
2018-12-25T13:33:38.546Z,2.00
2018-12-25T13:38:42.313Z,3.00
2018-12-25T13:43:46.072Z,2.75
2018-12-25T13:48:49.845Z,2.00
2018-12-25T13:53:53.618Z,2.00
2018-12-25T13:58:57.397Z,2.00
2018-12-25T14:30:54.192Z,2.00
2018-12-25T14:35:57.982Z,1.60
2018-12-25T14:41:01.745Z,2.00
2018-12-25T14:46:05.504Z,2.00
2018-12-25T14:51:09.277Z,1.60
2018-12-25T14:56:13.040Z,3.00
2018-12-25T15:01:16.822Z,6.20
2018-12-25T15:39:04.482Z,12.80
2018-12-25T15:44:08.255Z,12.00
2018-12-25T15:49:12.037Z,11.00
2018-12-25T15:54:15.812Z,9.00
2018-12-25T15:59:19.587Z,11.20
2018-12-25T16:04:23.359Z,9.00
2018-12-25T16:09:27.136Z,9.00
2018-12-25T16:14:30.894Z,8.75
2018-12-25T16:19:34.680Z,9.00
2018-12-25T16:24:38.439Z,8.00
2018-12-25T16:29:42.198Z,8.50
2018-12-25T16:34:46.029Z,8.00
2018-12-25T16:39:49.817Z,7.00
2018-12-25T16:44:53.588Z,7.00
2018-12-25T16:49:57.367Z,7.20
2018-12-25T16:55:01.140Z,6.80
2018-12-25T17:00:05.994Z,7.00
2018-12-25T17:05:09.766Z,8.20
2018-12-25T17:10:13.546Z,7.20
2018-12-25T17:15:17.316Z,7.00
2018-12-25T17:20:21.093Z,6.75
2018-12-25T17:25:24.887Z,6.60
2018-12-25T17:30:28.660Z,6.00
2018-12-25T17:35:32.709Z,4.50
2018-12-25T17:40:36.491Z,6.25
2018-12-25T17:45:40.275Z,7.50
2018-12-25T17:50:44.057Z,4.50
2018-12-25T17:55:47.833Z,6.00
2018-12-25T18:00:51.615Z,4.00
2018-12-25T18:05:55.405Z,4.00
2018-12-25T18:10:59.199Z,4.00
2018-12-25T18:16:04.230Z,6.00
2018-12-25T18:21:07.949Z,4.00
2018-12-25T18:26:11.720Z,6.00
2018-12-25T18:31:15.535Z,3.00
2018-12-25T18:36:19.316Z,3.25
2018-12-25T18:41:23.106Z,4.00
2018-12-25T18:46:26.913Z,4.60
2018-12-25T18:51:30.712Z,4.50
2018-12-25T18:56:34.499Z,7.00
2018-12-25T19:01:38.281Z,7.00
2018-12-25T19:06:42.084Z,6.00
2018-12-25T19:11:45.900Z,6.00
2018-12-25T19:16:51.583Z,7.00
2018-12-25T19:21:55.470Z,7.75
2018-12-25T19:26:59.283Z,6.50
2018-12-25T19:32:03.047Z,6.00
2018-12-25T19:37:06.828Z,7.60
2018-12-25T19:42:10.599Z,7.00
2018-12-25T19:47:14.370Z,7.00
2018-12-25T19:52:18.136Z,8.00
2018-12-25T19:57:21.927Z,7.50
2018-12-25T20:02:28.435Z,7.00
2018-12-25T20:07:57.959Z,7.00
2018-12-25T20:13:45.169Z,7.20
2018-12-25T20:19:30.694Z,7.00
2018-12-25T20:24:53.769Z,8.00
2018-12-25T20:30:47.997Z,7.00
2018-12-25T20:36:39.629Z,7.00
2018-12-25T20:42:19.809Z,6.25
2018-12-25T20:48:00.097Z,7.00
2018-12-25T20:53:38.197Z,6.25
2018-12-25T20:59:12.586Z,6.60
2018-12-25T21:05:08.888Z,6.00
2018-12-25T21:11:03.425Z,6.60
2018-12-25T21:16:38.037Z,6.40
2018-12-25T21:22:27.856Z,6.00
2018-12-25T21:27:33.573Z,7.00
2018-12-25T21:32:40.100Z,6.40
2018-12-25T21:37:43.867Z,5.80
2018-12-25T21:42:47.979Z,5.00
2018-12-25T21:47:51.825Z,6.00
2018-12-25T21:52:55.591Z,6.25
2018-12-25T21:57:59.618Z,5.00
2018-12-25T22:03:03.968Z,5.00
2018-12-25T22:08:07.728Z,4.75
2018-12-25T22:13:11.498Z,4.00
2018-12-25T22:18:15.265Z,5.40
2018-12-25T22:23:19.032Z,4.00
2018-12-25T22:28:22.791Z,4.00
2018-12-25T22:33:26.555Z,4.00
2018-12-25T22:38:30.328Z,3.80
2018-12-25T22:43:34.087Z,4.00
2018-12-25T22:48:37.860Z,4.00
2018-12-25T22:53:41.623Z,4.00
2018-12-25T22:58:45.381Z,4.50
2018-12-25T23:03:49.137Z,3.20
2018-12-25T23:08:52.901Z,4.00
2018-12-25T23:13:56.674Z,4.00
2018-12-25T23:19:00.452Z,4.00
2018-12-25T23:24:04.224Z,4.00
2018-12-25T23:29:08.020Z,4.00
2018-12-25T23:34:11.844Z,4.00
2018-12-25T23:39:15.600Z,3.75
2018-12-25T23:44:19.358Z,4.00
2018-12-25T23:49:23.139Z,4.00
2018-12-25T23:54:26.915Z,4.00
2018-12-25T23:59:30.673Z,4.00
